sensor_id;sensor_type;location;lat;lon;timestamp;temperature;humidity
3023;DHT22;1521;53.584;9.938;2023-03-20T00:03:47;8.90;99.90
3023;DHT22;1521;53.584;9.938;2023-03-20T00:06:20;8.90;99.90
3023;DHT22;1521;53.584;9.938;2023-03-20T00:08:47;8.80;99.90
3023;DHT22;1521;53.584;9.938;2023-03-20T00:13:52;8.80;99.90
3023;DHT22;1521;53.584;9.938;2023-03-20T00:16:29;8.80;99.90
3023;DHT22;1521;53.584;9.938;2023-03-20T00:18:56;8.90;99.90
3023;DHT22;1521;53.584;9.938;2023-03-20T00:21:22;8.90;99.90
3023;DHT22;1521;53.584;9.938;2023-03-20T00:23:47;8.90;99.90
3023;DHT22;1521;53.584;9.938;2023-03-20T00:26:15;8.90;99.90
3023;DHT22;1521;53.584;9.938;2023-03-20T00:28:44;8.80;99.90
3023;DHT22;1521;53.584;9.938;2023-03-20T00:31:23;8.80;99.90
3023;DHT22;1521;53.584;9.938;2023-03-20T00:33:50;8.80;99.90
3023;DHT22;1521;53.584;9.938;2023-03-20T00:36:16;8.80;99.90
3023;DHT22;1521;53.584;9.938;2023-03-20T00:38:42;8.80;99.90
3023;DHT22;1521;53.584;9.938;2023-03-20T00:44:23;8.80;99.90
3023;DHT22;1521;53.584;9.938;2023-03-20T00:46:53;8.80;99.90
3023;DHT22;1521;53.584;9.938;2023-03-20T00:49:22;8.80;99.90
3023;DHT22;1521;53.584;9.938;2023-03-20T00:51:48;8.80;99.90
3023;DHT22;1521;53.584;9.938;2023-03-20T00:54:16;8.80;99.90
3023;DHT22;1521;53.584;9.938;2023-03-20T00:56:44;8.80;99.90
3023;DHT22;1521;53.584;9.938;2023-03-20T00:59:22;8.80;99.90
3023;DHT22;1521;53.584;9.938;2023-03-20T01:01:49;8.80;99.90
3023;DHT22;1521;53.584;9.938;2023-03-20T01:04:17;8.80;99.90
3023;DHT22;1521;53.584;9.938;2023-03-20T01:06:44;8.80;99.90
3023;DHT22;1521;53.584;9.938;2023-03-20T01:09:10;8.80;99.90
3023;DHT22;1521;53.584;9.938;2023-03-20T01:11:37;8.80;99.90
3023;DHT22;1521;53.584;9.938;2023-03-20T01:14:03;8.80;99.90
3023;DHT22;1521;53.584;9.938;2023-03-20T01:16:28;8.80;99.90
3023;DHT22;1521;53.584;9.938;2023-03-20T01:18:54;8.80;99.90
3023;DHT22;1521;53.584;9.938;2023-03-20T01:21:20;8.80;99.90
3023;DHT22;1521;53.584;9.938;2023-03-20T01:23:47;8.80;99.90
3023;DHT22;1521;53.584;9.938;2023-03-20T01:28:51;8.90;99.90
3023;DHT22;1521;53.584;9.938;2023-03-20T01:31:17;8.90;99.90
3023;DHT22;1521;53.584;9.938;2023-03-20T01:33:43;8.90;99.90
3023;DHT22;1521;53.584;9.938;2023-03-20T01:36:10;8.90;99.90
3023;DHT22;1521;53.584;9.938;2023-03-20T01:38:37;8.90;99.90
3023;DHT22;1521;53.584;9.938;2023-03-20T01:41:16;8.90;99.90
3023;DHT22;1521;53.584;9.938;2023-03-20T01:43:44;8.90;99.90
3023;DHT22;1521;53.584;9.938;2023-03-20T01:48:57;8.90;99.90
3023;DHT22;1521;53.584;9.938;2023-03-20T01:51:29;8.90;99.90
3023;DHT22;1521;53.584;9.938;2023-03-20T01:56:22;8.90;99.90
3023;DHT22;1521;53.584;9.938;2023-03-20T01:59:24;8.90;99.90
3023;DHT22;1521;53.584;9.938;2023-03-20T02:01:51;8.90;99.90
3023;DHT22;1521;53.584;9.938;2023-03-20T02:04:18;8.90;99.90
3023;DHT22;1521;53.584;9.938;2023-03-20T02:06:45;8.90;99.90
3023;DHT22;1521;53.584;9.938;2023-03-20T02:09:11;8.90;99.90
3023;DHT22;1521;53.584;9.938;2023-03-20T02:11:38;8.80;99.90
3023;DHT22;1521;53.584;9.938;2023-03-20T02:14:04;8.70;99.90
3023;DHT22;1521;53.584;9.938;2023-03-20T02:16:31;8.70;99.90
3023;DHT22;1521;53.584;9.938;2023-03-20T02:18:57;8.60;99.90
3023;DHT22;1521;53.584;9.938;2023-03-20T02:22:00;8.50;99.90
3023;DHT22;1521;53.584;9.938;2023-03-20T02:36:06;8.30;99.90
3023;DHT22;1521;53.584;9.938;2023-03-20T02:41:37;8.20;99.90
3023;DHT22;1521;53.584;9.938;2023-03-20T02:46:56;8.10;99.90
3023;DHT22;1521;53.584;9.938;2023-03-20T02:52:22;8.00;99.90
3023;DHT22;1521;53.584;9.938;2023-03-20T02:54:56;8.00;99.90
3023;DHT22;1521;53.584;9.938;2023-03-20T03:03:19;7.80;99.90
3023;DHT22;1521;53.584;9.938;2023-03-20T03:06:09;7.80;99.90
3023;DHT22;1521;53.584;9.938;2023-03-20T03:08:40;7.80;99.90
3023;DHT22;1521;53.584;9.938;2023-03-20T03:11:08;7.70;99.90
3023;DHT22;1521;53.584;9.938;2023-03-20T03:13:37;7.70;99.90
3023;DHT22;1521;53.584;9.938;2023-03-20T03:16:25;7.70;99.90
3023;DHT22;1521;53.584;9.938;2023-03-20T03:19:04;7.70;99.90
3023;DHT22;1521;53.584;9.938;2023-03-20T03:21:32;7.70;99.90
3023;DHT22;1521;53.584;9.938;2023-03-20T03:23:59;7.70;99.90
3023;DHT22;1521;53.584;9.938;2023-03-20T03:26:27;7.70;99.90
3023;DHT22;1521;53.584;9.938;2023-03-20T03:28:57;7.70;99.90
3023;DHT22;1521;53.584;9.938;2023-03-20T03:31:24;7.60;99.90
3023;DHT22;1521;53.584;9.938;2023-03-20T03:33:53;7.70;99.90
3023;DHT22;1521;53.584;9.938;2023-03-20T03:41:49;7.60;99.90
3023;DHT22;1521;53.584;9.938;2023-03-20T03:44:26;7.60;99.90
3023;DHT22;1521;53.584;9.938;2023-03-20T03:47:05;7.60;99.90
3023;DHT22;1521;53.584;9.938;2023-03-20T03:49:35;7.60;99.90
3023;DHT22;1521;53.584;9.938;2023-03-20T03:52:05;7.60;99.90
3023;DHT22;1521;53.584;9.938;2023-03-20T03:54:43;7.50;99.90
3023;DHT22;1521;53.584;9.938;2023-03-20T03:57:12;7.50;99.90
3023;DHT22;1521;53.584;9.938;2023-03-20T03:59:42;7.50;99.90
3023;DHT22;1521;53.584;9.938;2023-03-20T04:02:09;7.60;99.90
3023;DHT22;1521;53.584;9.938;2023-03-20T04:04:37;7.60;99.90
3023;DHT22;1521;53.584;9.938;2023-03-20T04:07:04;7.60;99.90
3023;DHT22;1521;53.584;9.938;2023-03-20T04:09:30;7.60;99.90
3023;DHT22;1521;53.584;9.938;2023-03-20T04:11:56;7.60;99.90
3023;DHT22;1521;53.584;9.938;2023-03-20T04:14:22;7.50;99.90
3023;DHT22;1521;53.584;9.938;2023-03-20T04:16:47;7.60;99.90
3023;DHT22;1521;53.584;9.938;2023-03-20T04:19:13;7.60;99.90
3023;DHT22;1521;53.584;9.938;2023-03-20T04:21:38;7.60;99.90
3023;DHT22;1521;53.584;9.938;2023-03-20T04:24:05;7.60;99.90
3023;DHT22;1521;53.584;9.938;2023-03-20T04:26:31;7.60;99.90
3023;DHT22;1521;53.584;9.938;2023-03-20T04:28:56;7.60;99.90
3023;DHT22;1521;53.584;9.938;2023-03-20T04:31:22;7.60;99.90
3023;DHT22;1521;53.584;9.938;2023-03-20T04:33:48;7.60;99.90
3023;DHT22;1521;53.584;9.938;2023-03-20T04:36:13;7.70;99.90
3023;DHT22;1521;53.584;9.938;2023-03-20T04:38:39;7.70;99.90
3023;DHT22;1521;53.584;9.938;2023-03-20T04:41:06;7.70;99.90
3023;DHT22;1521;53.584;9.938;2023-03-20T04:43:32;7.70;99.90
3023;DHT22;1521;53.584;9.938;2023-03-20T04:45:57;7.60;99.90
3023;DHT22;1521;53.584;9.938;2023-03-20T04:48:23;7.70;99.90
3023;DHT22;1521;53.584;9.938;2023-03-20T04:50:49;7.60;99.90
3023;DHT22;1521;53.584;9.938;2023-03-20T04:53:16;7.60;99.90
3023;DHT22;1521;53.584;9.938;2023-03-20T04:55:42;7.60;99.90
3023;DHT22;1521;53.584;9.938;2023-03-20T04:58:08;7.60;99.90
3023;DHT22;1521;53.584;9.938;2023-03-20T05:00:33;7.60;99.90
3023;DHT22;1521;53.584;9.938;2023-03-20T05:02:59;7.60;99.90
3023;DHT22;1521;53.584;9.938;2023-03-20T05:05:26;7.60;99.90
3023;DHT22;1521;53.584;9.938;2023-03-20T05:07:51;7.60;99.90
3023;DHT22;1521;53.584;9.938;2023-03-20T05:10:18;7.50;99.90
3023;DHT22;1521;53.584;9.938;2023-03-20T05:12:43;7.50;99.90
3023;DHT22;1521;53.584;9.938;2023-03-20T05:15:10;7.50;99.90
3023;DHT22;1521;53.584;9.938;2023-03-20T05:17:35;7.60;99.90
3023;DHT22;1521;53.584;9.938;2023-03-20T05:20:01;7.50;99.90
3023;DHT22;1521;53.584;9.938;2023-03-20T05:22:27;7.50;99.90
3023;DHT22;1521;53.584;9.938;2023-03-20T05:24:52;7.50;99.90
3023;DHT22;1521;53.584;9.938;2023-03-20T05:27:18;7.50;99.90
3023;DHT22;1521;53.584;9.938;2023-03-20T05:29:44;7.50;99.90
3023;DHT22;1521;53.584;9.938;2023-03-20T05:32:09;7.50;99.90
3023;DHT22;1521;53.584;9.938;2023-03-20T05:34:37;7.50;99.90
3023;DHT22;1521;53.584;9.938;2023-03-20T05:37:02;7.50;99.90
3023;DHT22;1521;53.584;9.938;2023-03-20T05:39:28;7.50;99.90
3023;DHT22;1521;53.584;9.938;2023-03-20T05:41:54;7.50;99.90
3023;DHT22;1521;53.584;9.938;2023-03-20T05:44:19;7.50;99.90
3023;DHT22;1521;53.584;9.938;2023-03-20T05:46:45;7.40;99.90
3023;DHT22;1521;53.584;9.938;2023-03-20T05:49:11;7.40;99.90
3023;DHT22;1521;53.584;9.938;2023-03-20T05:51:36;7.50;99.90
3023;DHT22;1521;53.584;9.938;2023-03-20T05:54:02;7.40;99.90
3023;DHT22;1521;53.584;9.938;2023-03-20T05:56:28;7.50;99.90
3023;DHT22;1521;53.584;9.938;2023-03-20T05:58:53;7.50;99.90
3023;DHT22;1521;53.584;9.938;2023-03-20T06:01:19;7.40;99.90
3023;DHT22;1521;53.584;9.938;2023-03-20T06:03:48;7.50;99.90
3023;DHT22;1521;53.584;9.938;2023-03-20T06:06:14;7.40;99.90
3023;DHT22;1521;53.584;9.938;2023-03-20T06:08:40;7.50;99.90
3023;DHT22;1521;53.584;9.938;2023-03-20T06:11:07;7.50;99.90
3023;DHT22;1521;53.584;9.938;2023-03-20T06:13:32;7.50;99.90
3023;DHT22;1521;53.584;9.938;2023-03-20T06:15:58;7.60;99.90
3023;DHT22;1521;53.584;9.938;2023-03-20T06:18:24;7.60;99.90
3023;DHT22;1521;53.584;9.938;2023-03-20T06:20:54;7.60;99.90
3023;DHT22;1521;53.584;9.938;2023-03-20T06:23:20;7.60;99.90
3023;DHT22;1521;53.584;9.938;2023-03-20T06:25:46;7.70;99.90
3023;DHT22;1521;53.584;9.938;2023-03-20T06:28:12;7.70;99.90
3023;DHT22;1521;53.584;9.938;2023-03-20T06:30:37;7.70;99.90
3023;DHT22;1521;53.584;9.938;2023-03-20T06:33:05;7.70;99.90
3023;DHT22;1521;53.584;9.938;2023-03-20T06:35:31;7.80;99.90
3023;DHT22;1521;53.584;9.938;2023-03-20T06:37:58;7.80;99.90
3023;DHT22;1521;53.584;9.938;2023-03-20T06:40:24;7.80;99.90
3023;DHT22;1521;53.584;9.938;2023-03-20T06:42:50;7.90;99.90
3023;DHT22;1521;53.584;9.938;2023-03-20T06:45:15;7.90;99.90
3023;DHT22;1521;53.584;9.938;2023-03-20T06:47:41;7.90;86.40
3023;DHT22;1521;53.584;9.938;2023-03-20T06:50:07;7.90;67.80
3023;DHT22;1521;53.584;9.938;2023-03-20T06:52:33;8.00;43.20
3023;DHT22;1521;53.584;9.938;2023-03-20T06:54:59;8.00;24.30
3023;DHT22;1521;53.584;9.938;2023-03-20T06:57:25;8.00;16.00
3023;DHT22;1521;53.584;9.938;2023-03-20T06:59:51;8.10;1.00
3023;DHT22;1521;53.584;9.938;2023-03-20T07:02:17;8.10;1.00
3023;DHT22;1521;53.584;9.938;2023-03-20T07:04:42;8.10;1.00
3023;DHT22;1521;53.584;9.938;2023-03-20T07:07:08;8.10;1.00
3023;DHT22;1521;53.584;9.938;2023-03-20T07:09:33;8.10;1.00
3023;DHT22;1521;53.584;9.938;2023-03-20T07:11:59;8.10;1.00
3023;DHT22;1521;53.584;9.938;2023-03-20T07:14:25;8.10;1.00
3023;DHT22;1521;53.584;9.938;2023-03-20T07:16:50;8.10;1.00
3023;DHT22;1521;53.584;9.938;2023-03-20T07:19:17;8.10;1.00
3023;DHT22;1521;53.584;9.938;2023-03-20T07:21:43;8.20;1.00
3023;DHT22;1521;53.584;9.938;2023-03-20T07:24:09;8.20;1.00
3023;DHT22;1521;53.584;9.938;2023-03-20T07:26:35;8.20;1.00
3023;DHT22;1521;53.584;9.938;2023-03-20T07:29:01;8.20;1.00
3023;DHT22;1521;53.584;9.938;2023-03-20T07:31:27;8.30;1.00
3023;DHT22;1521;53.584;9.938;2023-03-20T07:33:54;8.30;1.00
3023;DHT22;1521;53.584;9.938;2023-03-20T07:36:20;8.30;1.00
3023;DHT22;1521;53.584;9.938;2023-03-20T07:38:45;8.30;1.00
3023;DHT22;1521;53.584;9.938;2023-03-20T07:41:11;8.30;1.00
3023;DHT22;1521;53.584;9.938;2023-03-20T07:43:37;8.30;1.00
3023;DHT22;1521;53.584;9.938;2023-03-20T07:46:07;8.30;1.00
3023;DHT22;1521;53.584;9.938;2023-03-20T07:48:33;8.40;1.00
3023;DHT22;1521;53.584;9.938;2023-03-20T07:51:00;8.40;1.00
3023;DHT22;1521;53.584;9.938;2023-03-20T07:53:26;8.50;1.00
3023;DHT22;1521;53.584;9.938;2023-03-20T07:55:51;8.60;99.90
3023;DHT22;1521;53.584;9.938;2023-03-20T07:58:17;8.60;99.90
3023;DHT22;1521;53.584;9.938;2023-03-20T08:00:43;8.70;99.90
3023;DHT22;1521;53.584;9.938;2023-03-20T08:03:09;8.70;99.90
3023;DHT22;1521;53.584;9.938;2023-03-20T08:05:35;8.70;99.90
3023;DHT22;1521;53.584;9.938;2023-03-20T08:08:01;8.80;99.90
3023;DHT22;1521;53.584;9.938;2023-03-20T08:10:26;8.80;99.90
3023;DHT22;1521;53.584;9.938;2023-03-20T08:12:52;8.80;99.90
3023;DHT22;1521;53.584;9.938;2023-03-20T08:15:18;8.80;99.90
3023;DHT22;1521;53.584;9.938;2023-03-20T08:17:44;8.80;55.60
3023;DHT22;1521;53.584;9.938;2023-03-20T08:20:11;8.80;1.00
3023;DHT22;1521;53.584;9.938;2023-03-20T08:22:37;8.80;1.00
3023;DHT22;1521;53.584;9.938;2023-03-20T08:25:03;8.80;1.00
3023;DHT22;1521;53.584;9.938;2023-03-20T08:27:29;8.80;1.00
3023;DHT22;1521;53.584;9.938;2023-03-20T08:29:55;8.70;1.00
3023;DHT22;1521;53.584;9.938;2023-03-20T08:32:20;8.80;1.60
3023;DHT22;1521;53.584;9.938;2023-03-20T08:34:46;8.80;10.80
3023;DHT22;1521;53.584;9.938;2023-03-20T08:37:12;8.90;1.00
3023;DHT22;1521;53.584;9.938;2023-03-20T08:39:38;8.80;1.00
3023;DHT22;1521;53.584;9.938;2023-03-20T08:42:05;8.90;1.00
3023;DHT22;1521;53.584;9.938;2023-03-20T08:44:31;9.00;1.00
3023;DHT22;1521;53.584;9.938;2023-03-20T08:46:57;8.90;1.00
3023;DHT22;1521;53.584;9.938;2023-03-20T08:49:23;9.00;1.00
3023;DHT22;1521;53.584;9.938;2023-03-20T08:51:49;9.00;1.00
3023;DHT22;1521;53.584;9.938;2023-03-20T08:54:15;9.00;1.00
3023;DHT22;1521;53.584;9.938;2023-03-20T08:56:43;9.10;1.00
3023;DHT22;1521;53.584;9.938;2023-03-20T08:59:10;9.20;1.00
3023;DHT22;1521;53.584;9.938;2023-03-20T09:01:36;9.30;1.00
3023;DHT22;1521;53.584;9.938;2023-03-20T09:04:02;9.30;99.90
3023;DHT22;1521;53.584;9.938;2023-03-20T09:06:27;9.20;99.90
3023;DHT22;1521;53.584;9.938;2023-03-20T09:08:54;9.20;99.90
3023;DHT22;1521;53.584;9.938;2023-03-20T09:11:19;9.20;99.90
3023;DHT22;1521;53.584;9.938;2023-03-20T09:13:45;9.10;99.90
3023;DHT22;1521;53.584;9.938;2023-03-20T09:16:11;9.10;99.90
3023;DHT22;1521;53.584;9.938;2023-03-20T09:18:36;9.20;80.10
3023;DHT22;1521;53.584;9.938;2023-03-20T09:21:02;9.20;1.00
3023;DHT22;1521;53.584;9.938;2023-03-20T09:23:28;9.20;81.90
3023;DHT22;1521;53.584;9.938;2023-03-20T09:25:53;9.20;96.40
3023;DHT22;1521;53.584;9.938;2023-03-20T09:28:19;9.20;99.90
3023;DHT22;1521;53.584;9.938;2023-03-20T09:30:45;9.10;1.00
3023;DHT22;1521;53.584;9.938;2023-03-20T09:33:10;9.10;1.00
3023;DHT22;1521;53.584;9.938;2023-03-20T09:35:36;9.20;1.00
3023;DHT22;1521;53.584;9.938;2023-03-20T09:38:02;9.30;1.00
3023;DHT22;1521;53.584;9.938;2023-03-20T09:40:32;9.40;1.00
3023;DHT22;1521;53.584;9.938;2023-03-20T09:51:43;9.70;1.00
3023;DHT22;1521;53.584;9.938;2023-03-20T09:54:09;9.70;1.00
3023;DHT22;1521;53.584;9.938;2023-03-20T09:56:37;9.80;99.90
3023;DHT22;1521;53.584;9.938;2023-03-20T09:59:04;9.80;1.00
3023;DHT22;1521;53.584;9.938;2023-03-20T10:01:43;9.80;1.00
3023;DHT22;1521;53.584;9.938;2023-03-20T10:04:11;9.80;99.90
3023;DHT22;1521;53.584;9.938;2023-03-20T10:06:37;9.70;99.90
3023;DHT22;1521;53.584;9.938;2023-03-20T10:09:27;9.70;99.90
3023;DHT22;1521;53.584;9.938;2023-03-20T10:17:38;9.60;1.00
3023;DHT22;1521;53.584;9.938;2023-03-20T10:20:24;9.60;99.90
3023;DHT22;1521;53.584;9.938;2023-03-20T10:22:54;9.60;99.90
3023;DHT22;1521;53.584;9.938;2023-03-20T10:25:40;9.60;1.00
3023;DHT22;1521;53.584;9.938;2023-03-20T10:28:19;9.60;99.90
3023;DHT22;1521;53.584;9.938;2023-03-20T10:36:48;9.60;99.90
3023;DHT22;1521;53.584;9.938;2023-03-20T10:42:13;9.70;1.00
3023;DHT22;1521;53.584;9.938;2023-03-20T10:44:45;9.80;1.00
3023;DHT22;1521;53.584;9.938;2023-03-20T10:47:16;9.80;1.00
3023;DHT22;1521;53.584;9.938;2023-03-20T10:49:48;9.80;1.00
3023;DHT22;1521;53.584;9.938;2023-03-20T10:52:20;9.80;1.00
3023;DHT22;1521;53.584;9.938;2023-03-20T10:55:00;9.80;1.00
3023;DHT22;1521;53.584;9.938;2023-03-20T10:57:30;9.90;99.90
3023;DHT22;1521;53.584;9.938;2023-03-20T10:59:58;10.00;1.00
3023;DHT22;1521;53.584;9.938;2023-03-20T11:02:29;10.10;1.00
3023;DHT22;1521;53.584;9.938;2023-03-20T11:04:58;10.30;35.90
3023;DHT22;1521;53.584;9.938;2023-03-20T11:07:34;10.30;6.60
3023;DHT22;1521;53.584;9.938;2023-03-20T11:12:35;10.20;1.00
3023;DHT22;1521;53.584;9.938;2023-03-20T11:15:21;10.20;1.00
3023;DHT22;1521;53.584;9.938;2023-03-20T11:18:06;10.20;1.00
3023;DHT22;1521;53.584;9.938;2023-03-20T11:20:48;10.30;1.00
3023;DHT22;1521;53.584;9.938;2023-03-20T11:23:17;10.40;1.00
3023;DHT22;1521;53.584;9.938;2023-03-20T11:26:07;10.50;1.00
3023;DHT22;1521;53.584;9.938;2023-03-20T11:28:41;10.40;1.00
3023;DHT22;1521;53.584;9.938;2023-03-20T11:33:39;10.20;1.00
3023;DHT22;1521;53.584;9.938;2023-03-20T11:36:32;10.20;1.00
3023;DHT22;1521;53.584;9.938;2023-03-20T11:41:50;10.10;1.00
3023;DHT22;1521;53.584;9.938;2023-03-20T11:44:33;10.10;1.00
3023;DHT22;1521;53.584;9.938;2023-03-20T11:47:11;10.20;1.00
3023;DHT22;1521;53.584;9.938;2023-03-20T11:49:51;10.10;1.00
3023;DHT22;1521;53.584;9.938;2023-03-20T11:52:34;10.00;1.00
3023;DHT22;1521;53.584;9.938;2023-03-20T11:55:03;10.10;1.00
3023;DHT22;1521;53.584;9.938;2023-03-20T11:59:54;10.10;1.00
3023;DHT22;1521;53.584;9.938;2023-03-20T12:02:22;10.00;1.00
3023;DHT22;1521;53.584;9.938;2023-03-20T12:04:48;10.00;1.00
3023;DHT22;1521;53.584;9.938;2023-03-20T12:07:24;10.00;1.00
3023;DHT22;1521;53.584;9.938;2023-03-20T12:09:58;10.00;1.00
3023;DHT22;1521;53.584;9.938;2023-03-20T12:12:49;10.00;1.00
3023;DHT22;1521;53.584;9.938;2023-03-20T12:31:32;10.40;1.00
3023;DHT22;1521;53.584;9.938;2023-03-20T12:34:15;10.50;1.00
3023;DHT22;1521;53.584;9.938;2023-03-20T12:36:47;10.50;1.00
3023;DHT22;1521;53.584;9.938;2023-03-20T12:39:17;10.50;1.00
3023;DHT22;1521;53.584;9.938;2023-03-20T12:41:50;10.60;1.00
3023;DHT22;1521;53.584;9.938;2023-03-20T12:44:38;10.70;1.00
3023;DHT22;1521;53.584;9.938;2023-03-20T12:58:07;12.20;1.00
3023;DHT22;1521;53.584;9.938;2023-03-20T13:17:26;11.60;1.00
3023;DHT22;1521;53.584;9.938;2023-03-20T13:31:40;11.20;1.00
3023;DHT22;1521;53.584;9.938;2023-03-20T13:36:54;10.90;1.00
3023;DHT22;1521;53.584;9.938;2023-03-20T13:39:31;10.90;1.00
3023;DHT22;1521;53.584;9.938;2023-03-20T13:41:59;10.80;1.00
3023;DHT22;1521;53.584;9.938;2023-03-20T13:44:27;10.80;1.00
3023;DHT22;1521;53.584;9.938;2023-03-20T13:47:05;10.70;1.00
3023;DHT22;1521;53.584;9.938;2023-03-20T13:49:49;10.70;1.00
3023;DHT22;1521;53.584;9.938;2023-03-20T13:52:36;10.60;1.00
3023;DHT22;1521;53.584;9.938;2023-03-20T14:02:06;10.50;1.00
3023;DHT22;1521;53.584;9.938;2023-03-20T14:04:14;10.40;1.00
3023;DHT22;1521;53.584;9.938;2023-03-20T14:06:55;10.40;1.00
3023;DHT22;1521;53.584;9.938;2023-03-20T14:09:25;10.40;1.00
3023;DHT22;1521;53.584;9.938;2023-03-20T14:11:57;10.50;1.00
3023;DHT22;1521;53.584;9.938;2023-03-20T14:14:28;10.50;1.00
3023;DHT22;1521;53.584;9.938;2023-03-20T14:17:02;10.60;1.00
3023;DHT22;1521;53.584;9.938;2023-03-20T14:19:31;10.60;1.00
3023;DHT22;1521;53.584;9.938;2023-03-20T14:21:58;10.60;1.00
3023;DHT22;1521;53.584;9.938;2023-03-20T14:24:26;10.60;1.00
3023;DHT22;1521;53.584;9.938;2023-03-20T14:26:57;10.60;1.00
3023;DHT22;1521;53.584;9.938;2023-03-20T14:29:33;10.60;1.00
3023;DHT22;1521;53.584;9.938;2023-03-20T14:35:00;10.40;1.00
3023;DHT22;1521;53.584;9.938;2023-03-20T14:42:36;10.30;1.00
3023;DHT22;1521;53.584;9.938;2023-03-20T14:50:49;10.30;1.00
3023;DHT22;1521;53.584;9.938;2023-03-20T14:53:18;10.40;1.00
3023;DHT22;1521;53.584;9.938;2023-03-20T15:01:03;10.30;1.00
3023;DHT22;1521;53.584;9.938;2023-03-20T15:03:29;10.30;1.00
3023;DHT22;1521;53.584;9.938;2023-03-20T15:05:58;10.30;1.00
3023;DHT22;1521;53.584;9.938;2023-03-20T15:08:30;10.20;1.00
3023;DHT22;1521;53.584;9.938;2023-03-20T15:10:58;10.10;1.00
3023;DHT22;1521;53.584;9.938;2023-03-20T15:13:26;10.10;1.00
3023;DHT22;1521;53.584;9.938;2023-03-20T15:16:05;10.10;1.00
3023;DHT22;1521;53.584;9.938;2023-03-20T15:18:52;10.00;1.00
3023;DHT22;1521;53.584;9.938;2023-03-20T15:21:34;10.00;1.00
3023;DHT22;1521;53.584;9.938;2023-03-20T15:24:01;10.00;1.00
3023;DHT22;1521;53.584;9.938;2023-03-20T15:26:28;10.00;1.00
3023;DHT22;1521;53.584;9.938;2023-03-20T15:29:03;10.00;1.00
3023;DHT22;1521;53.584;9.938;2023-03-20T15:31:34;10.00;1.00
3023;DHT22;1521;53.584;9.938;2023-03-20T15:34:05;10.00;1.00
3023;DHT22;1521;53.584;9.938;2023-03-20T15:36:33;9.90;1.00
3023;DHT22;1521;53.584;9.938;2023-03-20T15:39:20;9.90;1.00
3023;DHT22;1521;53.584;9.938;2023-03-20T15:41:56;9.90;1.00
3023;DHT22;1521;53.584;9.938;2023-03-20T15:44:25;9.90;1.00
3023;DHT22;1521;53.584;9.938;2023-03-20T15:47:00;9.80;1.00
3023;DHT22;1521;53.584;9.938;2023-03-20T15:49:26;9.90;1.00
3023;DHT22;1521;53.584;9.938;2023-03-20T15:51:54;9.90;1.00
3023;DHT22;1521;53.584;9.938;2023-03-20T15:54:21;9.80;1.00
3023;DHT22;1521;53.584;9.938;2023-03-20T15:56:50;9.80;1.00
3023;DHT22;1521;53.584;9.938;2023-03-20T15:59:18;9.80;1.00
3023;DHT22;1521;53.584;9.938;2023-03-20T16:01:46;9.70;7.70
3023;DHT22;1521;53.584;9.938;2023-03-20T16:04:15;9.60;67.80
3023;DHT22;1521;53.584;9.938;2023-03-20T16:07:00;9.40;99.90
3023;DHT22;1521;53.584;9.938;2023-03-20T16:09:26;9.30;99.90
3023;DHT22;1521;53.584;9.938;2023-03-20T16:12:00;9.30;99.90
3023;DHT22;1521;53.584;9.938;2023-03-20T16:14:30;9.20;99.90
3023;DHT22;1521;53.584;9.938;2023-03-20T16:16:57;9.20;99.90
3023;DHT22;1521;53.584;9.938;2023-03-20T16:19:24;9.20;99.90
3023;DHT22;1521;53.584;9.938;2023-03-20T16:22:22;9.10;99.90
3023;DHT22;1521;53.584;9.938;2023-03-20T16:24:51;9.10;99.90
3023;DHT22;1521;53.584;9.938;2023-03-20T16:27:31;9.10;99.90
3023;DHT22;1521;53.584;9.938;2023-03-20T16:29:58;9.10;99.90
3023;DHT22;1521;53.584;9.938;2023-03-20T16:32:34;9.10;99.90
3023;DHT22;1521;53.584;9.938;2023-03-20T16:35:03;9.10;1.00
3023;DHT22;1521;53.584;9.938;2023-03-20T16:37:42;9.00;1.00
3023;DHT22;1521;53.584;9.938;2023-03-20T16:42:45;9.00;1.00
3023;DHT22;1521;53.584;9.938;2023-03-20T16:45:24;9.00;1.00
3023;DHT22;1521;53.584;9.938;2023-03-20T16:50:37;9.00;1.00
3023;DHT22;1521;53.584;9.938;2023-03-20T16:53:15;9.00;1.00
3023;DHT22;1521;53.584;9.938;2023-03-20T16:55:47;9.00;1.00
3023;DHT22;1521;53.584;9.938;2023-03-20T16:58:21;9.00;1.00
3023;DHT22;1521;53.584;9.938;2023-03-20T17:01:07;9.00;1.00
3023;DHT22;1521;53.584;9.938;2023-03-20T17:03:36;8.90;1.00
3023;DHT22;1521;53.584;9.938;2023-03-20T17:11:28;8.90;1.00
3023;DHT22;1521;53.584;9.938;2023-03-20T17:13:55;8.90;1.00
3023;DHT22;1521;53.584;9.938;2023-03-20T17:16:21;8.80;1.00
3023;DHT22;1521;53.584;9.938;2023-03-20T17:18:58;8.80;1.00
3023;DHT22;1521;53.584;9.938;2023-03-20T17:21:25;8.80;1.00
3023;DHT22;1521;53.584;9.938;2023-03-20T17:23:50;8.80;1.00
3023;DHT22;1521;53.584;9.938;2023-03-20T17:26:16;8.80;1.00
3023;DHT22;1521;53.584;9.938;2023-03-20T17:28:41;8.80;1.00
3023;DHT22;1521;53.584;9.938;2023-03-20T17:31:11;8.80;1.00
3023;DHT22;1521;53.584;9.938;2023-03-20T17:33:37;8.70;57.20
3023;DHT22;1521;53.584;9.938;2023-03-20T17:36:04;8.70;99.90
3023;DHT22;1521;53.584;9.938;2023-03-20T17:38:30;8.70;99.90
3023;DHT22;1521;53.584;9.938;2023-03-20T17:40:55;8.70;99.90
3023;DHT22;1521;53.584;9.938;2023-03-20T17:43:21;8.70;99.90
3023;DHT22;1521;53.584;9.938;2023-03-20T17:45:48;8.70;99.90
3023;DHT22;1521;53.584;9.938;2023-03-20T17:48:16;8.70;99.90
3023;DHT22;1521;53.584;9.938;2023-03-20T17:50:47;8.70;99.90
3023;DHT22;1521;53.584;9.938;2023-03-20T17:53:21;8.70;99.90
3023;DHT22;1521;53.584;9.938;2023-03-20T17:55:49;8.70;99.90
3023;DHT22;1521;53.584;9.938;2023-03-20T17:58:19;8.70;1.00
3023;DHT22;1521;53.584;9.938;2023-03-20T18:00:47;8.70;1.00
3023;DHT22;1521;53.584;9.938;2023-03-20T18:03:13;8.70;1.00
3023;DHT22;1521;53.584;9.938;2023-03-20T18:05:40;8.60;1.00
3023;DHT22;1521;53.584;9.938;2023-03-20T18:08:17;8.60;1.00
3023;DHT22;1521;53.584;9.938;2023-03-20T18:10:50;8.60;1.00
3023;DHT22;1521;53.584;9.938;2023-03-20T18:13:18;8.60;1.00
3023;DHT22;1521;53.584;9.938;2023-03-20T18:15:46;8.60;1.00
3023;DHT22;1521;53.584;9.938;2023-03-20T18:18:12;8.60;99.90
3023;DHT22;1521;53.584;9.938;2023-03-20T18:20:38;8.70;99.90
3023;DHT22;1521;53.584;9.938;2023-03-20T18:23:05;8.60;99.90
3023;DHT22;1521;53.584;9.938;2023-03-20T18:25:32;8.50;99.90
3023;DHT22;1521;53.584;9.938;2023-03-20T18:27:59;8.60;99.90
3023;DHT22;1521;53.584;9.938;2023-03-20T18:30:32;8.60;99.90
3023;DHT22;1521;53.584;9.938;2023-03-20T18:32:59;8.60;99.90
3023;DHT22;1521;53.584;9.938;2023-03-20T18:35:25;8.60;99.90
3023;DHT22;1521;53.584;9.938;2023-03-20T18:37:50;8.60;99.90
3023;DHT22;1521;53.584;9.938;2023-03-20T18:42:53;8.60;99.90
3023;DHT22;1521;53.584;9.938;2023-03-20T18:45:20;8.60;99.90
3023;DHT22;1521;53.584;9.938;2023-03-20T18:47:46;8.50;1.00
3023;DHT22;1521;53.584;9.938;2023-03-20T18:52:48;8.50;1.00
3023;DHT22;1521;53.584;9.938;2023-03-20T18:55:13;8.50;1.00
3023;DHT22;1521;53.584;9.938;2023-03-20T18:57:40;8.50;16.70
3023;DHT22;1521;53.584;9.938;2023-03-20T19:00:31;8.40;93.70
3023;DHT22;1521;53.584;9.938;2023-03-20T19:03:00;8.40;99.90
3023;DHT22;1521;53.584;9.938;2023-03-20T19:05:26;8.40;99.90
3023;DHT22;1521;53.584;9.938;2023-03-20T19:07:52;8.50;1.00
3023;DHT22;1521;53.584;9.938;2023-03-20T19:10:28;8.50;99.90
3023;DHT22;1521;53.584;9.938;2023-03-20T19:12:55;8.50;99.90
3023;DHT22;1521;53.584;9.938;2023-03-20T19:15:23;8.50;99.90
3023;DHT22;1521;53.584;9.938;2023-03-20T19:17:48;8.40;1.00
3023;DHT22;1521;53.584;9.938;2023-03-20T19:22:52;8.30;99.90
3023;DHT22;1521;53.584;9.938;2023-03-20T19:25:17;8.30;99.90
3023;DHT22;1521;53.584;9.938;2023-03-20T19:27:43;8.40;1.00
3023;DHT22;1521;53.584;9.938;2023-03-20T19:30:36;8.40;99.90
3023;DHT22;1521;53.584;9.938;2023-03-20T19:33:02;8.40;99.90
3023;DHT22;1521;53.584;9.938;2023-03-20T19:35:29;8.30;1.00
3023;DHT22;1521;53.584;9.938;2023-03-20T19:37:55;8.30;1.00
3023;DHT22;1521;53.584;9.938;2023-03-20T19:40:33;8.20;99.90